Romoe Maersk — OXLC2 — position and weather

sailwx.info

Track history (hours):
 
Tides and Currents Weather Stations Pressure Air Temp Water Temp Dewpoint Dewpoint Depression Visibility Wind Speed Wind Dir Waves Ship Positions

Romoe Maersk

Last reported at 2016-Apr-05 16:11 UTC. Time now 2016-May-01 13:43 UTC.
Position S 27°07' E 153°48'.
Warning: this ship's position is 25 days out of date.

Length 171 m; draft 7.2 m.

Type: Ship. MMSI: 220209000.

Date/timePositionNaut miles runAvg speedWind from/ knotsBaromVisibWave heightAir tempDewpointWater temp
2016-Apr-05 16:11S 27°07' E 153°48'5 8.3
2016-Apr-05 15:33S 27°02' E 153°45'8 7.5
2016-Apr-05 14:33S 26°56' E 153°42'7 6.8
2016-Apr-05 13:33S 26°50' E 153°38'6 5.8
2016-Apr-05 12:33S 26°45' E 153°34'6 6.4
2016-Apr-05 11:33S 26°44' E 153°27'9 6.8
2016-Apr-05 10:10S 26°42' E 153°16'5 6.7
2016-Apr-05 09:26S 26°43' E 153°11'1112.1
2016-Apr-05 08:33S 26°53' E 153°10'1312.7
2016-Apr-05 07:34S 27°04' E 153°18'1111.4
2016-Apr-05 06:34S 27°15' E 153°19'1111.2
2016-Apr-05 05:34S 27°23' E 153°10'0 0.2
2016-Apr-05 04:33S 27°23' E 153°10'0 0.0
2016-Apr-05 03:30S 27°23' E 153°10'0 0.1
2016-Apr-05 02:33S 27°23' E 153°10'0 0.0
2016-Apr-05 01:33S 27°23' E 153°10'0 0.0
2016-Apr-05 00:33S 27°23' E 153°10'0 0.0
2016-Apr-04 23:34S 27°23' E 153°10'0 0.0
2016-Apr-04 22:33S 27°23' E 153°10'0 0.1
2016-Apr-04 21:33S 27°23' E 153°10'0 0.0
2016-Apr-04 20:33S 27°23' E 153°10'0 0.1
2016-Apr-04 19:33S 27°23' E 153°10'0 0.0
2016-Apr-04 18:33S 27°23' E 153°10'0 0.0
2016-Apr-04 17:33S 27°23' E 153°10'0 0.0
2016-Apr-04 16:33S 27°23' E 153°10'0 0.1
2016-Apr-04 15:33S 27°23' E 153°10'0 0.1
2016-Apr-04 14:33S 27°23' E 153°10'0 0.0
2016-Apr-04 13:33S 27°23' E 153°10'0 0.0
2016-Apr-04 12:33S 27°23' E 153°10'0 0.0
2016-Apr-04 11:34S 27°23' E 153°10'0 0.0
2016-Apr-04 10:33S 27°23' E 153°10'0 0.0
2016-Apr-04 09:34S 27°23' E 153°10'0 0.0
2016-Apr-04 08:33S 27°23' E 153°10'0 0.0
2016-Apr-04 07:33S 27°23' E 153°10'0 0.0
2016-Apr-04 06:33S 27°23' E 153°10'5 5.1
2016-Apr-04 05:33S 27°19' E 153°13'1312.6
2016-Apr-04 04:33S 27°09' E 153°21'1312.9
2016-Apr-04 03:33S 26°58' E 153°13'10 9.9
2016-Apr-04 02:33S 26°48' E 153°11'13 3.8
2016-Apr-03 23:06S 26°38' E 153°21'2910.7
2016-Apr-03 20:22S 26°54' E 153°49'  
Track history (hours):
 
Tides and Currents Weather Stations Pressure Air Temp Water Temp Dewpoint Dewpoint Depression Visibility Wind Speed Wind Dir Waves Ship Positions

Romoe Maersk

Last reported at 2016-Apr-05 16:11 UTC. Time now 2016-May-01 13:43 UTC.
Position S 27°07' E 153°48'.
Warning: this ship's position is 25 days out of date.

Length 171 m; draft 7.2 m.

Type: Ship. MMSI: 220209000.

Date/timePositionNaut miles runAvg speedWind from/ knotsBaromVisibWave heightAir tempDewpointWater temp
2016-Apr-05 16:11S 27°07' E 153°48'5 8.3
2016-Apr-05 15:33S 27°02' E 153°45'8 7.5
2016-Apr-05 14:33S 26°56' E 153°42'7 6.8
2016-Apr-05 13:33S 26°50' E 153°38'6 5.8
2016-Apr-05 12:33S 26°45' E 153°34'6 6.4
2016-Apr-05 11:33S 26°44' E 153°27'9 6.8
2016-Apr-05 10:10S 26°42' E 153°16'5 6.7
2016-Apr-05 09:26S 26°43' E 153°11'1112.1
2016-Apr-05 08:33S 26°53' E 153°10'1312.7
2016-Apr-05 07:34S 27°04' E 153°18'1111.4
2016-Apr-05 06:34S 27°15' E 153°19'1111.2
2016-Apr-05 05:34S 27°23' E 153°10'0 0.2
2016-Apr-05 04:33S 27°23' E 153°10'0 0.0
2016-Apr-05 03:30S 27°23' E 153°10'0 0.1
2016-Apr-05 02:33S 27°23' E 153°10'0 0.0
2016-Apr-05 01:33S 27°23' E 153°10'0 0.0
2016-Apr-05 00:33S 27°23' E 153°10'0 0.0
2016-Apr-04 23:34S 27°23' E 153°10'0 0.0
2016-Apr-04 22:33S 27°23' E 153°10'0 0.1
2016-Apr-04 21:33S 27°23' E 153°10'0 0.0
2016-Apr-04 20:33S 27°23' E 153°10'0 0.1
2016-Apr-04 19:33S 27°23' E 153°10'0 0.0
2016-Apr-04 18:33S 27°23' E 153°10'0 0.0
2016-Apr-04 17:33S 27°23' E 153°10'0 0.0
2016-Apr-04 16:33S 27°23' E 153°10'0 0.1
2016-Apr-04 15:33S 27°23' E 153°10'0 0.1
2016-Apr-04 14:33S 27°23' E 153°10'0 0.0
2016-Apr-04 13:33S 27°23' E 153°10'0 0.0
2016-Apr-04 12:33S 27°23' E 153°10'0 0.0
2016-Apr-04 11:34S 27°23' E 153°10'0 0.0
2016-Apr-04 10:33S 27°23' E 153°10'0 0.0
2016-Apr-04 09:34S 27°23' E 153°10'0 0.0
2016-Apr-04 08:33S 27°23' E 153°10'0 0.0
2016-Apr-04 07:33S 27°23' E 153°10'0 0.0
2016-Apr-04 06:33S 27°23' E 153°10'5 5.1
2016-Apr-04 05:33S 27°19' E 153°13'1312.6
2016-Apr-04 04:33S 27°09' E 153°21'1312.9
2016-Apr-04 03:33S 26°58' E 153°13'10 9.9
2016-Apr-04 02:33S 26°48' E 153°11'13 3.8
2016-Apr-03 23:06S 26°38' E 153°21'2910.7
2016-Apr-03 20:22S 26°54' E 153°49'  

Dump ship's entire track history